Time;durP1;ratioP1;P1;durP2;ratioP2;P2;SDS_P1;SDS_P2;PMS_P1;PMS_P2;Temp;Humidity;BMP_temperature;BMP_pressure;BME280_temperature;BME280_humidity;BME280_pressure;Samples;Min_cycle;Max_cycle;Signal;HPM_P1;HPM_P2
2022/01/05 00:01:49;;;;;;;4.97;3.00;;;;;;;9.56;71.42;95206.72;1752062;81;25717;-90
2022/01/05 00:04:16;;;;;;;4.83;3.40;;;;;;;9.57;71.59;95221.81;1752467;81;25790;-91
2022/01/05 00:06:42;;;;;;;5.10;3.80;;;;;;;9.58;71.78;95223.44;1752482;81;25979;-90
2022/01/05 00:09:09;;;;;;;5.45;4.10;;;;;;;9.57;71.80;95219.12;1752444;81;25784;-88
2022/01/05 00:11:36;;;;;;;4.00;3.30;;;;;;;9.50;71.86;95227.97;1752438;81;26802;-91
2022/01/05 00:14:03;;;;;;;5.62;3.72;;;;;;;9.40;71.99;95214.42;1752669;81;25804;-93
2022/01/05 00:16:29;;;;;;;8.43;4.67;;;;;;;9.32;72.30;95228.34;1752425;80;26187;-90
2022/01/05 00:18:58;;;;;;;3.10;2.37;;;;;;;9.24;72.54;95244.43;1752349;81;26157;-91
2022/01/05 00:21:24;;;;;;;3.67;2.65;;;;;;;9.18;72.75;95264.81;1752405;80;25492;-89
2022/01/05 00:23:51;;;;;;;2.42;1.95;;;;;;;9.08;72.87;95276.82;1752454;81;27550;-90
2022/01/05 00:26:18;;;;;;;2.92;2.02;;;;;;;8.85;73.06;95270.66;1752065;80;25838;-88
2022/01/05 00:28:44;;;;;;;2.37;1.98;;;;;;;8.54;72.98;95281.61;1752249;81;25820;-90
2022/01/05 00:31:12;;;;;;;3.17;1.60;;;;;;;8.22;73.38;95290.81;1752354;81;26159;-88
2022/01/05 00:33:39;;;;;;;2.83;1.70;;;;;;;7.96;73.52;95302.28;1752399;81;25232;-92
2022/01/05 00:36:06;;;;;;;1.85;1.50;;;;;;;7.72;74.00;95310.23;1752472;80;27352;-90
2022/01/05 00:38:32;;;;;;;2.17;1.80;;;;;;;7.51;74.15;95312.56;1752336;81;25718;-90
2022/01/05 00:41:00;;;;;;;2.67;1.95;;;;;;;7.32;74.85;95305.80;1752385;81;25746;-88
2022/01/05 00:43:26;;;;;;;2.12;1.60;;;;;;;7.15;74.58;95308.44;1752212;81;26162;-90
2022/01/05 00:45:53;;;;;;;3.17;2.02;;;;;;;7.04;75.09;95317.88;1752388;81;25686;-91
2022/01/05 00:48:20;;;;;;;2.58;1.80;;;;;;;6.99;75.31;95323.16;1752302;81;28182;-89
2022/01/05 00:50:46;;;;;;;2.52;1.90;;;;;;;6.96;75.52;95319.09;1752257;81;25272;-86
2022/01/05 00:53:13;;;;;;;2.62;1.90;;;;;;;6.99;75.61;95335.23;1752431;81;25278;-89
2022/01/05 00:55:39;;;;;;;1.62;1.50;;;;;;;7.05;75.68;95334.27;1752350;81;26111;-89
2022/01/05 00:58:06;;;;;;;2.90;1.90;;;;;;;7.03;75.65;95328.32;1752421;81;25856;-90
2022/01/05 01:00:33;;;;;;;2.72;2.00;;;;;;;7.01;75.79;95331.77;1752031;81;27440;-89
2022/01/05 01:02:59;;;;;;;3.60;1.82;;;;;;;6.98;75.84;95332.27;1752067;80;25729;-90
2022/01/05 01:05:26;;;;;;;2.83;2.05;;;;;;;6.98;75.96;95329.59;1752340;81;25785;-88
2022/01/05 01:07:52;;;;;;;3.08;2.10;;;;;;;6.96;75.80;95337.05;1752332;81;25986;-90
2022/01/05 01:10:19;;;;;;;1.85;1.62;;;;;;;6.85;75.87;95342.74;1752261;81;25725;-88
2022/01/05 01:12:46;;;;;;;3.12;1.95;;;;;;;6.83;76.02;95340.30;1752350;81;26931;-91
2022/01/05 01:15:12;;;;;;;1.75;1.60;;;;;;;6.88;76.22;95340.12;1752176;81;25702;-91
2022/01/05 01:17:39;;;;;;;2.52;1.80;;;;;;;6.86;76.36;95342.52;1752454;81;26311;-88
2022/01/05 01:20:07;;;;;;;2.52;1.87;;;;;;;6.88;76.29;95345.48;1729299;81;26923;-92
2022/01/05 01:22:35;;;;;;;2.45;1.87;;;;;;;6.91;76.42;95339.62;1722413;83;25728;-90
2022/01/05 01:25:04;;;;;;;2.30;1.92;;;;;;;6.88;76.28;95336.36;1722274;83;27544;-87
2022/01/05 01:27:31;;;;;;;4.05;1.82;;;;;;;6.83;76.40;95350.20;1721380;83;25788;-88
2022/01/05 01:29:58;;;;;;;3.58;2.50;;;;;;;6.80;76.54;95351.48;1722525;83;25757;-90
2022/01/05 01:32:24;;;;;;;3.02;2.50;;;;;;;6.76;76.71;95317.36;1722360;83;27014;-91
2022/01/05 01:34:51;;;;;;;3.40;2.60;;;;;;;6.79;76.88;95339.13;1722524;83;25744;-90
2022/01/05 01:37:17;;;;;;;3.02;2.00;;;;;;;6.82;76.94;95360.12;1722447;83;27404;-91
2022/01/05 01:39:44;;;;;;;2.87;2.02;;;;;;;6.82;76.98;95366.82;1722368;83;25816;-92
2022/01/05 01:42:11;;;;;;;3.10;2.02;;;;;;;6.79;77.06;95344.49;1722474;83;26390;-92
2022/01/05 01:44:38;;;;;;;2.58;2.08;;;;;;;6.77;77.05;95353.30;1722519;83;26084;-90
2022/01/05 01:47:04;;;;;;;2.00;1.80;;;;;;;6.75;77.09;95344.70;1722499;82;25260;-88
2022/01/05 01:49:31;;;;;;;2.80;2.33;;;;;;;6.77;77.10;95348.45;1722364;83;27358;-90
2022/01/05 01:51:57;;;;;;;3.45;2.10;;;;;;;6.80;77.17;95352.83;1722400;83;25838;-91
2022/01/05 01:54:25;;;;;;;3.42;2.30;;;;;;;6.86;77.21;95347.88;1722462;83;25859;-89
2022/01/05 01:56:52;;;;;;;4.25;2.70;;;;;;;6.90;77.21;95340.14;1722595;83;26161;-94
2022/01/05 01:59:19;;;;;;;6.75;3.60;;;;;;;6.96;77.15;95335.19;1722460;83;25783;-90
2022/01/05 02:01:46;;;;;;;6.17;3.45;;;;;;;6.99;77.14;95324.51;1722164;83;27443;-92
2022/01/05 02:04:12;;;;;;;4.62;3.50;;;;;;;7.05;77.25;95340.97;1722453;83;26419;-92
2022/01/05 02:06:39;;;;;;;6.50;4.30;;;;;;;7.10;77.18;95349.95;1722418;81;25888;-93
2022/01/05 02:09:06;;;;;;;4.62;3.00;;;;;;;7.16;77.15;95356.20;1722468;83;26084;-94
2022/01/05 02:11:37;;;;;;;5.22;2.85;;;;;;;7.20;77.06;95361.39;1722473;83;25800;-93
2022/01/05 02:14:03;;;;;;;4.78;3.20;;;;;;;7.20;76.97;95360.05;1722413;83;27618;-91
2022/01/05 02:16:32;;;;;;;3.10;2.70;;;;;;;7.16;76.84;95361.57;1722348;83;25829;-93
2022/01/05 02:19:00;;;;;;;3.92;3.17;;;;;;;7.10;76.77;95357.18;1722397;83;25705;-91
2022/01/05 02:21:30;;;;;;;4.28;3.22;;;;;;;7.06;76.62;95331.88;1722345;82;26188;-90
2022/01/05 02:23:57;;;;;;;4.20;3.37;;;;;;;7.06;76.64;95339.92;1722397;83;25861;-91
2022/01/05 02:26:24;;;;;;;4.03;3.62;;;;;;;7.07;76.69;95383.13;1722412;82;27561;-90
2022/01/05 02:28:51;;;;;;;4.33;3.87;;;;;;;7.03;76.62;95373.92;1741921;81;25802;-90
2022/01/05 02:31:18;;;;;;;5.28;3.87;;;;;;;7.03;76.62;95379.29;1748337;81;25556;-90
2022/01/05 02:33:45;;;;;;;4.95;3.87;;;;;;;7.05;76.71;95383.89;1748288;81;26899;-89
2022/01/05 02:36:16;;;;;;;4.47;4.08;;;;;;;7.04;76.64;95385.77;1748408;82;25768;-90
2022/01/05 02:38:40;;;;;;;7.95;4.33;;;;;;;6.97;76.67;95378.92;1749143;81;28434;-89
2022/01/05 02:41:10;;;;;;;4.87;3.90;;;;;;;6.93;76.75;95389.81;1752761;81;25940;-88
2022/01/05 02:43:39;;;;;;;5.80;3.75;;;;;;;6.88;76.70;95403.14;1753070;81;26608;-90
2022/01/05 02:46:11;;;;;;;4.60;4.00;;;;;;;6.85;76.73;95418.65;1753078;81;25749;-90
2022/01/05 02:48:38;;;;;;;5.12;3.65;;;;;;;6.76;76.75;95424.06;1752051;81;25705;-91
2022/01/05 02:51:06;;;;;;;4.17;3.02;;;;;;;6.76;76.79;95410.66;1740008;81;27548;-90
2022/01/05 02:53:34;;;;;;;3.35;3.05;;;;;;;6.78;76.74;95417.95;1752913;81;25724;-90
2022/01/05 02:56:01;;;;;;;4.50;3.50;;;;;;;6.76;76.59;95399.93;1753042;81;25791;-92
2022/01/05 02:58:27;;;;;;;4.70;3.42;;;;;;;6.80;76.62;95398.42;1752991;81;26803;-94
2022/01/05 03:00:54;;;;;;;5.17;3.70;;;;;;;6.77;76.52;95386.00;1753179;81;25784;-93
2022/01/05 03:03:21;;;;;;;3.30;2.83;;;;;;;6.65;76.51;95373.95;1752807;81;27447;-92
2022/01/05 03:05:47;;;;;;;3.72;3.12;;;;;;;6.68;76.61;95380.20;1753028;81;25686;-93
2022/01/05 03:08:14;;;;;;;5.25;3.98;;;;;;;6.69;76.43;95364.41;1753069;81;25241;-92
2022/01/05 03:10:40;;;;;;;6.92;4.95;;;;;;;6.72;76.53;95365.28;1753085;81;26082;-91
2022/01/05 03:13:07;;;;;;;6.80;4.85;;;;;;;6.72;76.62;95369.30;1753060;81;25748;-92
2022/01/05 03:15:37;;;;;;;8.23;5.30;;;;;;;6.72;76.66;95376.00;1753025;81;27286;-92
2022/01/05 03:18:05;;;;;;;7.17;5.42;;;;;;;6.74;76.72;95373.91;1753004;81;25663;-92
2022/01/05 03:20:34;;;;;;;6.20;4.75;;;;;;;6.70;76.76;95376.76;1753046;81;26294;-92
2022/01/05 03:23:04;;;;;;;6.00;4.62;;;;;;;6.71;76.83;95389.12;1752977;80;26003;-90
2022/01/05 03:25:31;;;;;;;6.40;4.65;;;;;;;6.67;76.88;95378.56;1752960;81;25706;-91
2022/01/05 03:27:59;;;;;;;5.33;3.98;;;;;;;6.68;76.97;95376.17;1752121;81;27054;-91
2022/01/05 03:30:29;;;;;;;4.17;3.52;;;;;;;6.63;76.88;95380.11;1752361;80;25817;-93
2022/01/05 03:35:30;;;;;;;6.25;4.40;;;;;;;6.53;76.93;95348.22;1752519;81;26142;-91
2022/01/05 03:37:58;;;;;;;8.20;5.47;;;;;;;6.52;77.10;95341.27;1752526;81;25818;-91
2022/01/05 03:40:25;;;;;;;11.65;6.15;;;;;;;6.50;77.18;95346.33;1752405;81;27266;-89
2022/01/05 03:42:52;;;;;;;10.58;5.95;;;;;;;6.52;77.15;95358.68;1752401;81;25320;-89
2022/01/05 03:45:19;;;;;;;7.53;4.72;;;;;;;6.53;77.24;95375.03;1752198;81;25704;-90
2022/01/05 03:47:46;;;;;;;6.10;4.55;;;;;;;6.56;77.21;95371.36;1752506;80;26139;-91
2022/01/05 03:50:12;;;;;;;6.08;4.03;;;;;;;6.48;77.12;95365.03;1752456;81;25737;-92
2022/01/05 03:52:39;;;;;;;5.37;4.08;;;;;;;6.47;77.21;95360.72;1752390;81;28369;-92
2022/01/05 03:55:07;;;;;;;6.42;4.55;;;;;;;6.48;77.29;95361.01;1752354;81;25263;-91
2022/01/05 03:57:34;;;;;;;8.10;5.10;;;;;;;6.47;77.36;95364.21;1752439;81;25777;-91
2022/01/05 04:00:02;;;;;;;6.75;5.12;;;;;;;6.49;77.41;95347.90;1752517;81;26073;-90
2022/01/05 04:02:30;;;;;;;11.43;7.08;;;;;;;6.49;77.39;95344.70;1752594;81;25746;-92
2022/01/05 04:04:56;;;;;;;14.25;7.05;;;;;;;6.50;77.39;95330.77;1752637;81;27234;-92
2022/01/05 04:07:23;;;;;;;21.25;9.95;;;;;;;6.51;77.39;95335.08;1752392;81;25731;-92
2022/01/05 04:09:50;;;;;;;20.20;9.85;;;;;;;6.51;77.36;95327.04;1752610;81;25800;-93
2022/01/05 04:12:16;;;;;;;14.35;9.05;;;;;;;6.48;77.31;95320.80;1752717;81;26965;-94
2022/01/05 04:14:43;;;;;;;15.35;8.48;;;;;;;6.41;77.34;95321.44;1752783;81;25670;-93
2022/01/05 04:17:09;;;;;;;13.13;8.05;;;;;;;6.43;77.44;95332.75;1752584;81;27422;-93
2022/01/05 04:19:36;;;;;;;11.55;7.97;;;;;;;6.44;77.53;95343.76;1752470;81;25717;-93
2022/01/05 04:22:03;;;;;;;13.53;7.97;;;;;;;6.44;77.58;95353.14;1752582;81;26338;-91
2022/01/05 04:24:30;;;;;;;13.30;8.40;;;;;;;6.48;77.62;95348.95;1752514;81;26068;-90
2022/01/05 04:26:56;;;;;;;16.12;7.55;;;;;;;6.49;77.63;95346.56;1752171;81;25847;-91
2022/01/05 04:29:23;;;;;;;12.55;7.83;;;;;;;6.49;77.62;95348.72;1752477;81;27565;-91
2022/01/05 04:31:50;;;;;;;18.85;7.85;;;;;;;6.44;77.54;95358.50;1752386;81;25788;-90
2022/01/05 04:34:18;;;;;;;10.50;5.78;;;;;;;6.39;77.60;95362.42;1752466;81;25700;-91
2022/01/05 04:36:45;;;;;;;10.78;4.87;;;;;;;6.33;77.63;95372.72;1752519;80;26825;-91
2022/01/05 04:39:12;;;;;;;8.00;5.37;;;;;;;6.32;77.70;95375.11;1752596;81;25757;-92
2022/01/05 04:41:38;;;;;;;10.93;5.20;;;;;;;6.31;77.70;95362.77;1752352;81;27364;-92
2022/01/05 04:44:05;;;;;;;9.00;5.78;;;;;;;6.30;77.85;95364.63;1752550;80;25483;-91
2022/01/05 04:46:32;;;;;;;10.43;6.37;;;;;;;6.31;77.87;95372.14;1752366;81;26296;-91
2022/01/05 04:48:58;;;;;;;12.55;7.80;;;;;;;6.30;77.92;95365.15;1752432;80;26594;-91
2022/01/05 04:51:25;;;;;;;12.50;7.25;;;;;;;6.33;77.93;95371.39;1752430;81;25876;-91
2022/01/05 04:53:52;;;;;;;9.90;7.75;;;;;;;6.33;77.93;95372.72;1752472;81;27367;-94
2022/01/05 04:56:19;;;;;;;9.98;7.03;;;;;;;6.32;77.92;95377.80;1752324;81;25750;-91
2022/01/05 04:58:45;;;;;;;15.83;8.05;;;;;;;6.32;77.91;95377.27;1752167;81;25705;-91
2022/01/05 05:01:12;;;;;;;12.53;7.60;;;;;;;6.33;77.96;95368.70;1752487;81;25784;-91
2022/01/05 05:03:39;;;;;;;9.98;6.78;;;;;;;6.32;77.99;95379.95;1752492;81;26284;-91
2022/01/05 05:06:05;;;;;;;9.28;5.85;;;;;;;6.27;77.99;95379.03;1752346;81;27405;-91
2022/01/05 05:08:32;;;;;;;9.13;6.08;;;;;;;6.26;78.05;95390.80;1752295;81;25700;-91
2022/01/05 05:10:59;;;;;;;7.83;4.50;;;;;;;6.26;78.03;95388.94;1752493;81;25702;-91
2022/01/05 05:13:26;;;;;;;5.97;4.12;;;;;;;6.23;78.06;95384.55;1752423;81;26587;-90
2022/01/05 05:15:52;;;;;;;4.53;3.52;;;;;;;6.20;78.11;95382.34;1752428;81;25733;-92
2022/01/05 05:18:19;;;;;;;4.75;3.60;;;;;;;6.17;78.16;95384.13;1752493;81;27343;-89
2022/01/05 05:20:45;;;;;;;5.25;3.62;;;;;;;6.15;78.22;95379.04;1752273;81;25875;-91
2022/01/05 05:23:12;;;;;;;16.15;8.30;;;;;;;6.16;78.23;95381.19;1752329;81;25681;-91
2022/01/05 05:25:39;;;;;;;18.95;8.70;;;;;;;6.16;78.32;95390.02;1752386;81;25972;-91
2022/01/05 05:28:06;;;;;;;20.05;10.40;;;;;;;6.14;78.28;95390.27;1756342;80;25249;-91
2022/01/05 05:30:35;;;;;;;20.05;10.20;;;;;;;6.16;78.34;95389.23;1758438;80;27738;-91
2022/01/05 05:33:03;;;;;;;19.80;9.18;;;;;;;6.13;78.33;95399.36;1758721;80;25851;-92
2022/01/05 05:35:30;;;;;;;14.58;8.25;;;;;;;6.11;78.42;95400.11;1758868;80;25702;-94
2022/01/05 05:37:58;;;;;;;18.75;9.18;;;;;;;6.09;78.42;95400.86;1759006;81;26620;-94
2022/01/05 05:40:25;;;;;;;17.85;10.68;;;;;;;6.08;78.47;95394.39;1759148;81;25324;-91
2022/01/05 05:42:52;;;;;;;21.40;13.95;;;;;;;6.06;78.51;95399.97;1758953;80;27454;-91
2022/01/05 05:45:19;;;;;;;28.60;19.02;;;;;;;6.02;78.50;95410.88;1758911;81;25813;-94
2022/01/05 05:47:45;;;;;;;34.50;23.95;;;;;;;6.01;78.57;95409.24;1758902;80;26217;-86
2022/01/05 05:50:12;;;;;;;35.83;25.80;;;;;;;5.99;78.61;95408.66;1758826;81;25987;-93
2022/01/05 05:52:39;;;;;;;57.20;37.98;;;;;;;5.95;78.62;95404.80;1758898;81;25770;-89
2022/01/05 05:55:06;;;;;;;56.70;38.08;;;;;;;5.91;78.69;95403.65;1758905;81;28144;-92
2022/01/05 05:57:33;;;;;;;65.80;42.98;;;;;;;5.93;78.84;95405.55;1758822;81;25717;-93
2022/01/05 05:59:59;;;;;;;58.63;39.83;;;;;;;5.96;78.89;95402.94;1758796;80;25785;-90
2022/01/05 06:02:26;;;;;;;54.08;37.17;;;;;;;5.99;78.92;95405.97;1758781;81;26092;-92
2022/01/05 06:04:53;;;;;;;43.85;31.68;;;;;;;6.03;78.95;95413.03;1758809;81;25732;-91
2022/01/05 06:07:19;;;;;;;31.05;21.02;;;;;;;6.08;78.97;95415.30;1758785;81;28172;-89
2022/01/05 06:09:46;;;;;;;25.08;17.98;;;;;;;6.12;78.95;95415.66;1758667;81;25764;-88
2022/01/05 06:12:12;;;;;;;29.23;22.17;;;;;;;6.14;78.89;95415.72;1758781;81;25757;-90
2022/01/05 06:14:39;;;;;;;30.17;20.70;;;;;;;6.17;78.91;95411.73;1758761;81;26248;-92
2022/01/05 06:17:06;;;;;;;31.07;20.70;;;;;;;6.18;78.85;95420.59;1758869;80;25777;-92
2022/01/05 06:19:32;;;;;;;35.28;25.65;;;;;;;6.16;78.79;95429.41;1758864;81;27370;-91
2022/01/05 06:21:59;;;;;;;39.33;26.65;;;;;;;6.11;78.77;95434.93;1758867;81;25741;-91
2022/01/05 06:24:26;;;;;;;39.03;25.82;;;;;;;6.07;78.76;95431.07;1758977;81;25752;-91
2022/01/05 06:26:52;;;;;;;41.25;26.50;;;;;;;6.03;78.82;95437.95;1758827;81;25876;-91
2022/01/05 06:29:21;;;;;;;37.90;24.95;;;;;;;6.02;78.91;95439.00;1752717;80;25760;-90
2022/01/05 06:31:48;;;;;;;34.80;23.25;;;;;;;6.05;78.96;95435.02;1752739;81;27537;-91
2022/01/05 06:34:14;;;;;;;37.45;26.00;;;;;;;6.06;78.97;95428.62;1752938;81;25789;-92
2022/01/05 06:36:41;;;;;;;36.25;26.02;;;;;;;5.98;78.94;95415.05;1753007;81;25826;-93
2022/01/05 06:39:08;;;;;;;40.60;26.42;;;;;;;5.98;79.06;95416.39;1753047;81;26761;-92
2022/01/05 06:41:34;;;;;;;33.15;22.60;;;;;;;6.00;79.08;95430.89;1753028;81;25782;-93
2022/01/05 06:44:01;;;;;;;27.77;20.32;;;;;;;6.01;79.10;95433.87;1753065;81;27483;-92
2022/01/05 06:46:27;;;;;;;26.07;19.40;;;;;;;5.97;79.06;95444.22;1753000;81;25911;-93
2022/01/05 06:48:54;;;;;;;32.30;22.15;;;;;;;5.96;79.12;95441.77;1753204;81;25737;-94
2022/01/05 06:51:20;;;;;;;25.60;19.70;;;;;;;5.96;79.13;95430.53;1752925;81;26054;-92
2022/01/05 06:53:47;;;;;;;30.92;22.80;;;;;;;5.87;79.04;95426.53;1753164;80;25733;-93
2022/01/05 06:56:15;;;;;;;34.10;22.90;;;;;;;5.88;79.19;95428.69;1752935;81;28110;-93
2022/01/05 06:58:42;;;;;;;41.25;25.62;;;;;;;5.89;79.26;95425.00;1752905;81;25701;-92
2022/01/05 07:01:08;;;;;;;35.63;23.02;;;;;;;5.88;79.27;95423.33;1753189;81;25754;-91
2022/01/05 07:03:35;;;;;;;36.30;26.02;;;;;;;5.90;79.28;95425.30;1753256;81;26156;-94
2022/01/05 07:06:01;;;;;;;48.90;32.08;;;;;;;5.91;79.33;95414.36;1753113;81;25838;-93
2022/01/05 07:08:28;;;;;;;44.42;27.95;;;;;;;5.96;79.40;95415.80;1753024;81;27513;-91
2022/01/05 07:10:54;;;;;;;37.90;26.37;;;;;;;5.97;79.27;95422.80;1752896;81;26464;-90
2022/01/05 07:13:22;;;;;;;39.03;25.43;;;;;;;5.96;79.24;95426.52;1753049;81;25323;-89
2022/01/05 07:15:51;;;;;;;30.88;22.15;;;;;;;5.97;79.21;95426.81;1753077;81;26118;-93
2022/01/05 07:18:17;;;;;;;35.13;21.02;;;;;;;5.96;79.17;95425.17;1753059;81;25608;-94
2022/01/05 07:20:45;;;;;;;32.45;21.55;;;;;;;5.94;79.08;95425.92;1753010;81;27549;-93
2022/01/05 07:23:12;;;;;;;30.43;21.30;;;;;;;5.94;79.17;95427.27;1752794;81;26005;-90
2022/01/05 07:25:38;;;;;;;30.95;19.48;;;;;;;5.98;79.20;95423.09;1752887;81;25729;-93
2022/01/05 07:28:05;;;;;;;24.95;15.63;;;;;;;5.98;79.11;95420.93;1752844;81;26019;-89
2022/01/05 07:30:31;;;;;;;23.30;15.63;;;;;;;5.96;79.02;95423.84;1752919;81;25819;-89
2022/01/05 07:32:58;;;;;;;24.52;14.33;;;;;;;5.95;79.09;95420.86;1752816;81;27590;-87
2022/01/05 07:35:24;;;;;;;24.67;15.30;;;;;;;5.96;79.11;95419.81;1748581;81;25806;-90
2022/01/05 07:37:51;;;;;;;53.10;27.55;;;;;;;5.98;79.13;95424.95;1752307;81;25754;-93
2022/01/05 07:40:18;;;;;;;47.10;29.07;;;;;;;6.00;79.14;95433.05;1753127;81;26134;-93
2022/01/05 07:42:44;;;;;;;27.30;19.02;;;;;;;6.03;79.08;95438.48;1753090;81;25284;-92
2022/01/05 07:45:11;;;;;;;36.25;22.58;;;;;;;6.05;79.04;95438.52;1753118;81;27612;-93
2022/01/05 07:47:38;;;;;;;155.43;69.03;;;;;;;6.05;78.95;95432.34;1753001;81;26414;-91
2022/01/05 07:50:14;;;;;;;221.22;98.78;;;;;;;6.03;78.89;95429.10;1746526;81;25788;-90
2022/01/05 07:52:35;;;;;;;246.10;107.63;;;;;;;6.01;78.88;95428.52;1752428;81;26764;-92
2022/01/05 07:55:02;;;;;;;249.92;101.95;;;;;;;6.00;78.90;95431.71;1740105;81;25801;-92
2022/01/05 07:57:29;;;;;;;286.65;119.00;;;;;;;6.01;78.90;95436.02;1753288;81;27408;-89
2022/01/05 07:59:55;;;;;;;323.77;139.28;;;;;;;6.03;78.84;95441.16;1753242;81;25846;-94
2022/01/05 08:02:22;;;;;;;208.35;95.92;;;;;;;6.01;78.80;95441.38;1753446;80;25733;-96
2022/01/05 08:04:49;;;;;;;93.82;44.83;;;;;;;5.99;78.76;95430.59;1753345;81;26074;-94
2022/01/05 08:07:16;;;;;;;37.28;18.95;;;;;;;5.94;78.68;95436.63;1753285;81;25761;-94
2022/01/05 08:09:42;;;;;;;18.90;10.90;;;;;;;5.90;78.75;95434.14;1753334;81;27394;-94
2022/01/05 08:12:10;;;;;;;16.60;9.95;;;;;;;5.83;78.66;95425.34;1753346;81;26298;-93
2022/01/05 08:14:37;;;;;;;13.22;8.15;;;;;;;5.73;78.65;95424.58;1753368;81;26206;-93
2022/01/05 08:17:04;;;;;;;12.37;9.23;;;;;;;5.63;78.72;95422.16;1753477;81;26062;-93
2022/01/05 08:19:31;;;;;;;14.03;9.48;;;;;;;5.60;78.89;95419.42;1753386;81;25255;-95
2022/01/05 08:21:57;;;;;;;14.80;9.88;;;;;;;5.59;79.00;95420.98;1753377;81;27532;-94
2022/01/05 08:24:26;;;;;;;15.95;10.23;;;;;;;5.61;79.12;95417.03;1753351;80;25689;-93
2022/01/05 08:26:53;;;;;;;33.55;19.20;;;;;;;5.64;79.15;95419.78;1753354;81;25314;-94
2022/01/05 08:29:20;;;;;;;55.58;34.27;;;;;;;5.64;79.17;95420.61;1752589;80;26151;-92
2022/01/05 08:31:46;;;;;;;54.73;30.70;;;;;;;5.68;79.17;95420.94;1752817;81;25752;-95
2022/01/05 08:34:13;;;;;;;33.65;19.62;;;;;;;5.66;79.03;95426.55;1752650;80;27222;-92
2022/01/05 08:36:39;;;;;;;24.00;13.15;;;;;;;5.66;79.13;95421.20;1752624;81;25310;-92
2022/01/05 08:39:06;;;;;;;45.40;24.98;;;;;;;5.70;79.16;95421.53;1753024;81;25833;-94
2022/01/05 08:41:32;;;;;;;73.20;38.67;;;;;;;5.73;79.11;95422.42;1752554;81;26113;-93
2022/01/05 08:43:59;;;;;;;77.85;46.23;;;;;;;5.76;79.15;95419.30;1752632;81;25720;-93
2022/01/05 08:46:26;;;;;;;75.00;43.98;;;;;;;5.78;79.15;95423.91;1752454;81;27429;-93
2022/01/05 08:48:52;;;;;;;101.85;59.33;;;;;;;5.82;79.15;95426.91;1752740;81;25297;-93
2022/01/05 08:51:19;;;;;;;114.70;63.35;;;;;;;5.83;79.16;95428.03;1752840;81;25820;-93
2022/01/05 08:53:46;;;;;;;86.70;49.75;;;;;;;5.83;79.17;95430.70;1752713;81;26105;-93
2022/01/05 08:56:12;;;;;;;36.10;21.12;;;;;;;5.75;79.08;95429.70;1752931;81;25789;-94
2022/01/05 08:58:39;;;;;;;23.55;15.35;;;;;;;5.75;79.25;95428.37;1752849;81;27569;-95
2022/01/05 09:01:07;;;;;;;23.30;14.38;;;;;;;5.76;79.33;95434.02;1752644;81;25797;-94
2022/01/05 09:03:34;;;;;;;24.85;15.50;;;;;;;5.79;79.36;95437.06;1752829;81;25700;-93
2022/01/05 09:06:03;;;;;;;23.83;15.65;;;;;;;5.83;79.37;95433.91;1752809;81;25818;-94
2022/01/05 09:08:29;;;;;;;24.52;16.67;;;;;;;5.82;79.33;95439.78;1752558;81;25702;-93
2022/01/05 09:10:55;;;;;;;34.20;24.63;;;;;;;5.83;79.37;95437.39;1752587;81;27445;-91
2022/01/05 09:13:22;;;;;;;29.40;22.10;;;;;;;5.84;79.41;95441.71;1752307;81;25910;-92
2022/01/05 09:15:49;;;;;;;23.27;17.07;;;;;;;5.84;79.34;95443.57;1752664;81;25698;-95
2022/01/05 09:18:15;;;;;;;13.78;10.43;;;;;;;5.80;79.31;95447.22;1752804;81;26144;-92
2022/01/05 09:20:42;;;;;;;15.38;10.50;;;;;;;5.84;79.39;95454.28;1752891;81;25718;-93
2022/01/05 09:23:09;;;;;;;36.93;23.22;;;;;;;5.89;79.39;95463.30;1752852;81;27997;-95
2022/01/05 09:25:35;;;;;;;53.08;30.82;;;;;;;5.92;79.32;95474.88;1753369;81;25256;-96
2022/01/05 09:28:02;;;;;;;46.55;28.90;;;;;;;5.96;79.28;95484.09;1752853;81;25831;-94
2022/01/05 09:30:29;;;;;;;40.95;25.62;;;;;;;5.99;79.23;95483.64;1753406;81;26043;-94
2022/01/05 09:32:58;;;;;;;42.00;26.10;;;;;;;6.01;79.13;95496.28;1753372;81;25235;-95
2022/01/05 09:35:25;;;;;;;71.07;44.05;;;;;;;5.99;78.98;95502.91;1753571;81;27630;-96
2022/01/05 09:38:09;;;;;;;61.45;35.63;;;;;;;5.94;78.97;95500.09;1753532;81;25733;-89
2022/01/05 09:43:09;;;;;;;68.85;39.67;;;;;;;5.88;79.05;95495.63;1753172;81;26789;-95
2022/01/05 09:45:38;;;;;;;57.90;34.50;;;;;;;5.84;78.99;95488.56;1753362;81;26311;-93
2022/01/05 09:48:38;;;;;;;47.93;28.40;;;;;;;5.79;79.02;95493.28;1753280;81;27234;-94
2022/01/05 09:51:12;;;;;;;29.77;17.85;;;;;;;5.78;79.14;95492.17;1753142;81;25274;-94
2022/01/05 09:53:40;;;;;;;26.65;13.83;;;;;;;5.82;79.24;95487.97;1753984;81;25306;-92
2022/01/05 09:56:07;;;;;;;20.25;11.40;;;;;;;5.87;79.19;95492.13;1753957;80;25993;-95
2022/01/05 09:58:35;;;;;;;15.68;10.05;;;;;;;5.88;79.20;95490.28;1753644;80;26346;-94
2022/01/05 10:01:04;;;;;;;16.15;10.53;;;;;;;5.90;79.12;95478.33;1753419;81;27485;-94
2022/01/05 10:03:31;;;;;;;19.42;11.65;;;;;;;5.90;79.02;95483.69;1753300;81;25715;-91
2022/01/05 10:05:57;;;;;;;18.32;11.60;;;;;;;5.93;79.10;95481.05;1753351;81;25718;-93
2022/01/05 10:08:24;;;;;;;20.02;12.05;;;;;;;5.96;79.03;95484.09;1753590;81;26064;-93
2022/01/05 10:10:55;;;;;;;22.77;13.88;;;;;;;5.97;78.94;95477.69;1753060;81;43758;-92
2022/01/05 10:13:22;;;;;;;25.60;13.78;;;;;;;5.98;78.93;95477.98;1753360;81;28310;-94
2022/01/05 10:15:49;;;;;;;18.80;10.40;;;;;;;6.00;78.93;95479.92;1753925;81;25240;-96
2022/01/05 10:18:19;;;;;;;18.27;9.70;;;;;;;6.01;78.78;95480.22;1754764;81;25248;-86
2022/01/05 10:21:05;;;;;;;26.62;13.18;;;;;;;6.00;78.77;95477.24;1754818;81;26144;-94
2022/01/05 10:23:45;;;;;;;25.37;14.07;;;;;;;6.01;78.77;95471.36;1755819;81;25642;-91
2022/01/05 10:26:33;;;;;;;18.50;10.75;;;;;;;6.01;78.78;95474.86;1756004;81;27341;-96
2022/01/05 10:29:20;;;;;;;20.77;11.97;;;;;;;5.95;78.66;95479.78;1755028;81;25741;-95
2022/01/05 10:31:56;;;;;;;36.13;22.30;;;;;;;5.93;78.69;95475.17;1753656;81;25373;-92
2022/01/05 10:34:29;;;;;;;33.85;20.90;;;;;;;5.93;78.77;95480.52;1753143;81;26109;-93
2022/01/05 10:37:03;;;;;;;30.15;19.60;;;;;;;5.94;78.83;95480.82;1752679;81;25789;-91
2022/01/05 10:39:40;;;;;;;29.05;18.17;;;;;;;5.95;78.88;95478.44;1752241;81;27524;-93
2022/01/05 10:42:11;;;;;;;27.90;18.15;;;;;;;5.96;78.89;95476.58;1752469;81;25752;-92
2022/01/05 10:44:41;;;;;;;28.93;16.90;;;;;;;5.98;79.31;95473.97;1752733;81;25882;-93
2022/01/05 10:47:08;;;;;;;25.65;17.00;;;;;;;5.98;79.31;95473.97;1752652;81;25988;-92
2022/01/05 10:49:40;;;;;;;23.65;15.72;;;;;;;5.99;78.94;95474.27;1752433;81;25741;-92
2022/01/05 10:52:29;;;;;;;21.85;13.75;;;;;;;6.00;79.01;95467.87;1752419;81;27529;-93
2022/01/05 10:55:14;;;;;;;20.65;13.38;;;;;;;6.02;78.97;95462.28;1752760;81;25719;-92
2022/01/05 10:58:05;;;;;;;20.27;12.80;;;;;;;6.03;79.06;95467.42;1752805;81;25716;-93
2022/01/05 11:00:53;;;;;;;18.40;12.05;;;;;;;6.05;79.03;95469.84;1752168;81;26042;-95
2022/01/05 11:03:35;;;;;;;22.50;14.68;;;;;;;6.04;79.07;95473.04;1752687;81;25994;-94
2022/01/05 11:06:08;;;;;;;39.35;25.10;;;;;;;6.06;79.22;95471.47;1752686;81;27404;-94
2022/01/05 11:08:58;;;;;;;39.33;24.15;;;;;;;6.08;79.26;95470.20;1752814;81;25729;-93
2022/01/05 11:11:37;;;;;;;31.05;19.07;;;;;;;6.12;79.29;95464.69;1752813;81;25639;-96
2022/01/05 11:14:14;;;;;;;28.38;16.17;;;;;;;6.14;79.35;95455.91;1752939;81;26042;-94
2022/01/05 11:16:53;;;;;;;36.28;20.12;;;;;;;6.20;79.31;95453.33;1752899;81;25669;-92
2022/01/05 11:19:30;;;;;;;35.03;19.87;;;;;;;6.22;79.32;95460.62;1752739;81;28250;-93
2022/01/05 11:22:07;;;;;;;31.37;19.87;;;;;;;6.28;79.27;95456.47;1752790;81;25741;-91
2022/01/05 11:24:46;;;;;;;30.70;20.32;;;;;;;6.32;79.28;95453.64;1752852;81;25747;-94
2022/01/05 11:27:20;;;;;;;36.05;21.40;;;;;;;6.39;79.27;95441.48;1748527;81;25982;-93
2022/01/05 11:29:47;;;;;;;39.08;22.70;;;;;;;6.41;79.16;95442.03;1753078;81;25886;-87
2022/01/05 11:32:20;;;;;;;39.42;23.55;;;;;;;6.38;79.06;95432.62;1752975;81;27451;-89
2022/01/05 11:34:51;;;;;;;40.20;21.85;;;;;;;6.45;79.05;95435.17;1730589;81;25976;-85
2022/01/05 11:37:18;;;;;;;34.88;21.30;;;;;;;6.48;78.91;95425.33;1729936;81;26241;-93
2022/01/05 11:39:52;;;;;;;33.13;20.48;;;;;;;6.50;78.94;95431.28;1753204;81;26269;-90
2022/01/05 11:42:34;;;;;;;36.10;21.23;;;;;;;6.52;78.97;95441.22;1753237;81;25796;-88